PWSweather.com
Personal Weather Stations
Station Observations
BALTRELAY
Relay, Baltimore, MD 21227

RelayBaltimore, MD 21227

Lat: 39.24588, Lon: -76.719772

Elevation: 221

Station Type: Davis Vantage Pro2 (6153)

http://www.relayweather.com

Latest ConditionsUpdated 7:50:06 PM GMT Saturday, Apr 19, 2014
Currently Today's Max Today's Min Today's Average
Temperature 66.6°F19.2°C 67.3°F19.6°C 41.3°F5.2°C 50.2°F10.1°C
Dew Point 34.2°F1.2°C 41.5°F5.3°C 33.3°F0.7°C 37.0°F2.8°C
Winds 5.4 mph NW8.7 kmh NW 12.8 mph N20.6 kmh N - 2.1 mph 3.4 kmh
Wind Gusts 8.1 mph13.0 kmh 18.2 mph29.3 kmh - -
Humidity 30% 83% 29% 64%
Pressure 30.19 in1022.4 mb 30.29 in1025.7 mb 30.19 in1022.4 mb -
Hour Temp Dew Point Humidity Winds Wind Gusts Pressure Precip Precip Rate Daily Precip Total
07:50 PM 66.6°F19.2°C 34.2°F1.2°C 30% 5.4 mph NW8.7 kmh NW 8.1 mph13.0 kmh 30.19 in1022.4 mb 0.00 in0.0 mm 0.00 in/hr0.0 mm/hr 0.00 in0.0 mm
07:45 PM 66.6°F19.2°C 33.3°F0.7°C 29% 9.0 mph N14.5 kmh N 14.1 mph22.7 kmh 30.19 in1022.4 mb 0.00 in0.0 mm 0.00 in/hr0.0 mm/hr 0.00 in0.0 mm
07:40 PM 66.7°F19.3°C 33.4°F0.8°C 29% 8.8 mph N14.2 kmh N 11.1 mph17.9 kmh 30.20 in1022.7 mb 0.00 in0.0 mm 0.00 in/hr0.0 mm/hr 0.00 in0.0 mm
07:30 PM 67.1°F19.5°C 33.7°F0.9°C 29% 10.2 mph N16.4 kmh N 14.1 mph22.7 kmh 30.20 in1022.7 mb 0.00 in0.0 mm 0.00 in/hr0.0 mm/hr 0.00 in0.0 mm
07:20 PM 67.2°F19.6°C 35.5°F1.9°C 31% 8.9 mph N14.3 kmh N 11.1 mph17.9 kmh 30.20 in1022.7 mb 0.00 in0.0 mm 0.00 in/hr0.0 mm/hr 0.00 in0.0 mm
07:15 PM 67.2°F19.6°C 34.7°F1.5°C 30% 5.5 mph NNE8.9 kmh NNE 11.1 mph17.9 kmh 30.20 in1022.7 mb 0.00 in0.0 mm 0.00 in/hr0.0 mm/hr 0.00 in0.0 mm
07:10 PM 67.1°F19.5°C 34.6°F1.4°C 30% 6.3 mph N10.1 kmh N 8.1 mph13.0 kmh 30.20 in1022.7 mb 0.00 in0.0 mm 0.00 in/hr0.0 mm/hr 0.00 in0.0 mm
07:00 PM 67.3°F19.6°C 35.6°F2.0°C 31% 5.3 mph N8.5 kmh N 8.1 mph13.0 kmh 30.20 in1022.7 mb 0.00 in0.0 mm 0.00 in/hr0.0 mm/hr 0.00 in0.0 mm
06:50 PM 67.1°F19.5°C 34.6°F1.4°C 30% 6.3 mph NW10.1 kmh NW 8.1 mph13.0 kmh 30.21 in1023.0 mb 0.00 in0.0 mm 0.00 in/hr0.0 mm/hr 0.00 in0.0 mm
06:45 PM 67.0°F19.4°C 36.1°F2.3°C 32% 5.9 mph NW9.5 kmh NW 10.1 mph16.3 kmh 30.21 in1023.0 mb 0.00 in0.0 mm 0.00 in/hr0.0 mm/hr 0.00 in0.0 mm
06:40 PM 67.0°F19.4°C 34.5°F1.4°C 30% 5.9 mph N9.5 kmh N 10.1 mph16.3 kmh 30.20 in1022.7 mb 0.00 in0.0 mm 0.00 in/hr0.0 mm/hr 0.00 in0.0 mm
06:30 PM 66.6°F19.2°C 34.2°F1.2°C 30% 7.7 mph NNE12.4 kmh NNE 10.1 mph16.3 kmh 30.21 in1023.0 mb 0.00 in0.0 mm 0.00 in/hr0.0 mm/hr 0.00 in0.0 mm
06:20 PM 66.4°F19.1°C 34.8°F1.6°C 31% 2.9 mph NNE4.7 kmh NNE 7.1 mph11.4 kmh 30.21 in1023.0 mb 0.00 in0.0 mm 0.00 in/hr0.0 mm/hr 0.00 in0.0 mm
06:15 PM 66.5°F19.2°C 35.7°F2.1°C 32% 11.2 mph N18.0 kmh N 15.1 mph24.3 kmh 30.21 in1023.0 mb 0.00 in0.0 mm 0.00 in/hr0.0 mm/hr 0.00 in0.0 mm
06:10 PM 66.4°F19.1°C 34.8°F1.6°C 31% 7.5 mph NNW12.1 kmh NNW 12.1 mph19.5 kmh 30.21 in1023.0 mb 0.00 in0.0 mm 0.00 in/hr0.0 mm/hr 0.00 in0.0 mm
06:00 PM 66.5°F19.2°C 34.9°F1.6°C 31% 8.1 mph NNE13.0 kmh NNE 8.1 mph13.0 kmh 30.21 in1023.0 mb 0.00 in0.0 mm 0.00 in/hr0.0 mm/hr 0.00 in0.0 mm
05:50 PM 66.3°F19.1°C 35.5°F1.9°C 32% 9.0 mph N14.5 kmh N 16.2 mph26.1 kmh 30.21 in1023.0 mb 0.00 in0.0 mm 0.00 in/hr0.0 mm/hr 0.00 in0.0 mm
05:45 PM 66.6°F19.2°C 35.8°F2.1°C 32% 11.3 mph N18.2 kmh N 14.1 mph22.7 kmh 30.22 in1023.4 mb 0.00 in0.0 mm 0.00 in/hr0.0 mm/hr 0.00 in0.0 mm
05:40 PM 66.3°F19.1°C 37.1°F2.8°C 34% 5.3 mph N8.5 kmh N 7.1 mph11.4 kmh 30.22 in1023.4 mb 0.00 in0.0 mm 0.00 in/hr0.0 mm/hr 0.00 in0.0 mm
05:30 PM 65.8°F18.8°C 36.6°F2.6°C 34% 9.2 mph N14.8 kmh N 16.2 mph26.1 kmh 30.22 in1023.4 mb 0.00 in0.0 mm 0.00 in/hr0.0 mm/hr 0.00 in0.0 mm
05:20 PM 65.8°F18.8°C 36.6°F2.6°C 34% 9.5 mph NE15.3 kmh NE 12.1 mph19.5 kmh 30.22 in1023.4 mb 0.00 in0.0 mm 0.00 in/hr0.0 mm/hr 0.00 in0.0 mm
05:15 PM 65.9°F18.8°C 37.5°F3.1°C 35% 9.2 mph N14.8 kmh N 18.2 mph29.3 kmh 30.22 in1023.4 mb 0.00 in0.0 mm 0.00 in/hr0.0 mm/hr 0.00 in0.0 mm
05:10 PM 65.7°F18.7°C 37.3°F2.9°C 35% 6.0 mph NNE9.7 kmh NNE 14.1 mph22.7 kmh 30.22 in1023.4 mb 0.00 in0.0 mm 0.00 in/hr0.0 mm/hr 0.00 in0.0 mm
05:00 PM 65.6°F18.7°C 38.0°F3.3°C 36% 7.7 mph NNE12.4 kmh NNE 13.1 mph21.1 kmh 30.23 in1023.7 mb 0.00 in0.0 mm 0.00 in/hr0.0 mm/hr 0.00 in0.0 mm
04:50 PM 65.4°F18.6°C 37.7°F3.2°C 36% 6.8 mph E10.9 kmh E 7.1 mph11.4 kmh 30.23 in1023.7 mb 0.00 in0.0 mm 0.00 in/hr0.0 mm/hr 0.00 in0.0 mm
04:45 PM 65.0°F18.3°C 38.1°F3.4°C 37% 5.4 mph NNE8.7 kmh NNE 8.1 mph13.0 kmh 30.23 in1023.7 mb 0.00 in0.0 mm 0.00 in/hr0.0 mm/hr 0.00 in0.0 mm
04:40 PM 64.9°F18.3°C 36.5°F2.5°C 35% 6.7 mph NE10.8 kmh NE 7.1 mph11.4 kmh 30.23 in1023.7 mb 0.00 in0.0 mm 0.00 in/hr0.0 mm/hr 0.00 in0.0 mm
04:30 PM 64.3°F17.9°C 37.5°F3.1°C 37% 6.5 mph NW10.5 kmh NW 7.1 mph11.4 kmh 30.23 in1023.7 mb 0.00 in0.0 mm 0.00 in/hr0.0 mm/hr 0.00 in0.0 mm
04:20 PM 63.3°F17.4°C 38.6°F3.7°C 40% 12.8 mph N20.6 kmh N 16.2 mph26.1 kmh 30.23 in1023.7 mb 0.00 in0.0 mm 0.00 in/hr0.0 mm/hr 0.00 in0.0 mm
04:15 PM 63.0°F17.2°C 39.5°F4.2°C 42% 2.0 mph NE3.2 kmh NE 5.0 mph8.0 kmh 30.24 in1024.0 mb 0.00 in0.0 mm 0.00 in/hr0.0 mm/hr 0.00 in0.0 mm
04:10 PM 62.6°F17.0°C 40.4°F4.7°C 44% 3.8 mph NE6.1 kmh NE 8.1 mph13.0 kmh 30.24 in1024.0 mb 0.00 in0.0 mm 0.00 in/hr0.0 mm/hr 0.00 in0.0 mm
04:00 PM 62.0°F16.7°C 41.0°F5.0°C 46% 7.4 mph N11.9 kmh N 10.1 mph16.3 kmh 30.24 in1024.0 mb 0.00 in0.0 mm 0.00 in/hr0.0 mm/hr 0.00 in0.0 mm
03:50 PM 61.4°F16.3°C 40.4°F4.7°C 46% 4.3 mph N6.9 kmh N 7.1 mph11.4 kmh 30.25 in1024.4 mb 0.00 in0.0 mm 0.00 in/hr0.0 mm/hr 0.00 in0.0 mm
03:45 PM 61.2°F16.2°C 40.8°F4.9°C 47% 3.0 mph N4.8 kmh N 4.0 mph6.4 kmh 30.25 in1024.4 mb 0.00 in0.0 mm 0.00 in/hr0.0 mm/hr 0.00 in0.0 mm
03:40 PM 61.1°F16.2°C 40.7°F4.8°C 47% 3.7 mph 6.0 kmh 7.1 mph11.4 kmh 30.25 in1024.4 mb 0.00 in0.0 mm 0.00 in/hr0.0 mm/hr 0.00 in0.0 mm
03:30 PM 60.3°F15.7°C 41.0°F5.0°C 49% 6.2 mph N10.0 kmh N 8.1 mph13.0 kmh 30.26 in1024.7 mb 0.00 in0.0 mm 0.00 in/hr0.0 mm/hr 0.00 in0.0 mm
03:20 PM 59.5°F15.3°C 39.8°F4.3°C 48% 4.2 mph N6.8 kmh N 7.1 mph11.4 kmh 30.27 in1025.1 mb 0.00 in0.0 mm 0.00 in/hr0.0 mm/hr 0.00 in0.0 mm
03:15 PM 59.2°F15.1°C 40.5°F4.7°C 50% 6.6 mph N10.6 kmh N 7.1 mph11.4 kmh 30.27 in1025.1 mb 0.00 in0.0 mm 0.00 in/hr0.0 mm/hr 0.00 in0.0 mm
03:10 PM 59.1°F15.1°C 40.0°F4.4°C 49% 9.9 mph N15.9 kmh N 11.1 mph17.9 kmh 30.27 in1025.1 mb 0.00 in0.0 mm 0.00 in/hr0.0 mm/hr 0.00 in0.0 mm
03:00 PM 58.8°F14.9°C 40.2°F4.6°C 50% 6.6 mph NNW10.6 kmh NNW 8.1 mph13.0 kmh 30.27 in1025.1 mb 0.00 in0.0 mm 0.00 in/hr0.0 mm/hr 0.00 in0.0 mm
02:50 PM 58.1°F14.5°C 40.6°F4.8°C 52% 6.8 mph N10.9 kmh N 8.1 mph13.0 kmh 30.28 in1025.4 mb 0.00 in0.0 mm 0.00 in/hr0.0 mm/hr 0.00 in0.0 mm
02:45 PM 57.7°F14.3°C 40.2°F4.6°C 52% 5.8 mph NNE9.3 kmh NNE 9.1 mph14.6 kmh 30.27 in1025.1 mb 0.00 in0.0 mm 0.00 in/hr0.0 mm/hr 0.00 in0.0 mm
02:40 PM 57.6°F14.2°C 40.1°F4.5°C 52% 6.9 mph N11.1 kmh N 10.1 mph16.3 kmh 30.27 in1025.1 mb 0.00 in0.0 mm 0.00 in/hr0.0 mm/hr 0.00 in0.0 mm
02:30 PM 56.9°F13.8°C 40.4°F4.7°C 54% 3.6 mph N5.8 kmh N 5.0 mph8.0 kmh 30.28 in1025.4 mb 0.00 in0.0 mm 0.00 in/hr0.0 mm/hr 0.00 in0.0 mm
02:20 PM 56.4°F13.6°C 40.9°F4.9°C 56% 6.4 mph N10.3 kmh N 8.1 mph13.0 kmh 30.28 in1025.4 mb 0.00 in0.0 mm 0.00 in/hr0.0 mm/hr 0.00 in0.0 mm
02:15 PM 56.3°F13.5°C 41.2°F5.1°C 57% 6.9 mph N11.1 kmh N 11.1 mph17.9 kmh 30.27 in1025.1 mb 0.00 in0.0 mm 0.00 in/hr0.0 mm/hr 0.00 in0.0 mm
02:10 PM 55.8°F13.2°C 41.2°F5.1°C 58% 2.8 mph NE4.5 kmh NE 5.0 mph8.0 kmh 30.28 in1025.4 mb 0.00 in0.0 mm 0.00 in/hr0.0 mm/hr 0.00 in0.0 mm
02:00 PM 54.5°F12.5°C 41.3°F5.2°C 61% 5.8 mph ENE9.3 kmh ENE 8.1 mph13.0 kmh 30.28 in1025.4 mb 0.00 in0.0 mm 0.00 in/hr0.0 mm/hr 0.00 in0.0 mm
01:50 PM 53.4°F11.9°C 40.7°F4.8°C 62% 2.4 mph NNE3.9 kmh NNE 7.1 mph11.4 kmh 30.28 in1025.4 mb 0.00 in0.0 mm 0.00 in/hr0.0 mm/hr 0.00 in0.0 mm
01:45 PM 53.0°F11.7°C 41.1°F5.1°C 64% 0.1 mph E0.2 kmh E 2.0 mph3.2 kmh 30.28 in1025.4 mb 0.00 in0.0 mm 0.00 in/hr0.0 mm/hr 0.00 in0.0 mm
01:40 PM 52.4°F11.3°C 41.0°F5.0°C 65% 2.8 mph NE4.5 kmh NE 2.0 mph3.2 kmh 30.27 in1025.1 mb 0.00 in0.0 mm 0.00 in/hr0.0 mm/hr 0.00 in0.0 mm
01:30 PM 51.4°F10.8°C 40.8°F4.9°C 67% 1.0 mph NNW1.6 kmh NNW 1.0 mph1.6 kmh 30.27 in1025.1 mb 0.00 in0.0 mm 0.00 in/hr0.0 mm/hr 0.00 in0.0 mm
01:20 PM 50.2°F10.1°C 41.5°F5.3°C 72% Calm Calm 1.0 mph1.6 kmh 30.27 in1025.1 mb 0.00 in0.0 mm 0.00 in/hr0.0 mm/hr 0.00 in0.0 mm
01:15 PM 49.3°F9.6°C 40.7°F4.8°C 72% Calm Calm -- 30.27 in1025.1 mb 0.00 in0.0 mm 0.00 in/hr0.0 mm/hr 0.00 in0.0 mm
01:10 PM 48.8°F9.3°C 40.5°F4.7°C 73% Calm Calm -- 30.27 in1025.1 mb 0.00 in0.0 mm 0.00 in/hr0.0 mm/hr 0.00 in0.0 mm
01:00 PM 47.4°F8.6°C 39.2°F4.0°C 73% 0.4 mph NW0.6 kmh NW 2.0 mph3.2 kmh 30.27 in1025.1 mb 0.00 in0.0 mm 0.00 in/hr0.0 mm/hr 0.00 in0.0 mm
12:50 PM 47.1°F8.4°C 39.2°F4.0°C 74% Calm Calm -- 30.27 in1025.1 mb 0.00 in0.0 mm 0.00 in/hr0.0 mm/hr 0.00 in0.0 mm
12:45 PM 46.8°F8.2°C 39.3°F4.1°C 75% Calm Calm -- 30.27 in1025.1 mb 0.00 in0.0 mm 0.00 in/hr0.0 mm/hr 0.00 in0.0 mm
12:40 PM 46.3°F7.9°C 39.2°F4.0°C 76% Calm Calm -- 30.27 in1025.1 mb 0.00 in0.0 mm 0.00 in/hr0.0 mm/hr 0.00 in0.0 mm
12:30 PM 45.9°F7.7°C 39.1°F3.9°C 77% Calm Calm -- 30.27 in1025.1 mb 0.00 in0.0 mm 0.00 in/hr0.0 mm/hr 0.00 in0.0 mm
12:20 PM 45.3°F7.4°C 39.2°F4.0°C 79% 0.1 mph ESE0.2 kmh ESE 1.0 mph1.6 kmh 30.26 in1024.7 mb 0.00 in0.0 mm 0.00 in/hr0.0 mm/hr 0.00 in0.0 mm
12:15 PM 45.0°F7.2°C 39.2°F4.0°C 80% Calm Calm -- 30.27 in1025.1 mb 0.00 in0.0 mm 0.00 in/hr0.0 mm/hr 0.00 in0.0 mm
12:10 PM 44.6°F7.0°C 39.2°F4.0°C 81% Calm Calm -- 30.27 in1025.1 mb 0.00 in0.0 mm 0.00 in/hr0.0 mm/hr 0.00 in0.0 mm
12:00 PM 43.5°F6.4°C 38.4°F3.6°C 82% Calm Calm -- 30.27 in1025.1 mb 0.00 in0.0 mm 0.00 in/hr0.0 mm/hr 0.00 in0.0 mm
11:50 AM 42.7°F5.9°C 37.9°F3.3°C 83% Calm Calm -- 30.26 in1024.7 mb 0.00 in0.0 mm 0.00 in/hr0.0 mm/hr 0.00 in0.0 mm
11:45 AM 42.4°F5.8°C 37.6°F3.1°C 83% Calm Calm -- 30.26 in1024.7 mb 0.00 in0.0 mm 0.00 in/hr0.0 mm/hr 0.00 in0.0 mm
11:40 AM 42.2°F5.7°C 37.4°F3.0°C 83% Calm Calm -- 30.26 in1024.7 mb 0.00 in0.0 mm 0.00 in/hr0.0 mm/hr 0.00 in0.0 mm
11:30 AM 41.8°F5.4°C 37.0°F2.8°C 83% Calm Calm -- 30.26 in1024.7 mb 0.00 in0.0 mm 0.00 in/hr0.0 mm/hr 0.00 in0.0 mm
11:20 AM 41.5°F5.3°C 36.7°F2.6°C 83% Calm Calm -- 30.25 in1024.4 mb 0.00 in0.0 mm 0.00 in/hr0.0 mm/hr 0.00 in0.0 mm
11:15 AM 41.4°F5.2°C 36.6°F2.6°C 83% Calm Calm -- 30.25 in1024.4 mb 0.00 in0.0 mm 0.00 in/hr0.0 mm/hr 0.00 in0.0 mm
11:10 AM 41.3°F5.2°C 36.5°F2.5°C 83% Calm Calm -- 30.25 in1024.4 mb 0.00 in0.0 mm 0.00 in/hr0.0 mm/hr 0.00 in0.0 mm
11:00 AM 41.3°F5.2°C 36.2°F2.3°C 82% Calm Calm -- 30.25 in1024.4 mb 0.00 in0.0 mm 0.00 in/hr0.0 mm/hr 0.00 in0.0 mm
10:50 AM 41.3°F5.2°C 36.2°F2.3°C 82% Calm Calm -- 30.24 in1024.0 mb 0.00 in0.0 mm 0.00 in/hr0.0 mm/hr 0.00 in0.0 mm
10:45 AM 41.3°F5.2°C 36.2°F2.3°C 82% Calm Calm -- 30.24 in1024.0 mb 0.00 in0.0 mm 0.00 in/hr0.0 mm/hr 0.00 in0.0 mm
10:40 AM 41.3°F5.2°C 36.2°F2.3°C 82% Calm Calm -- 30.24 in1024.0 mb 0.00 in0.0 mm 0.00 in/hr0.0 mm/hr 0.00 in0.0 mm
10:30 AM 41.3°F5.2°C 36.2°F2.3°C 82% 0.2 mph NW0.3 kmh NW -- 30.23 in1023.7 mb 0.00 in0.0 mm 0.00 in/hr0.0 mm/hr 0.00 in0.0 mm
10:20 AM 41.4°F5.2°C 36.0°F2.2°C 81% Calm Calm -- 30.23 in1023.7 mb 0.00 in0.0 mm 0.00 in/hr0.0 mm/hr 0.00 in0.0 mm
10:15 AM 41.4°F5.2°C 36.0°F2.2°C 81% Calm Calm -- 30.22 in1023.4 mb 0.00 in0.0 mm 0.00 in/hr0.0 mm/hr 0.00 in0.0 mm
10:10 AM 41.5°F5.3°C 36.1°F2.3°C 81% Calm Calm -- 30.22 in1023.4 mb 0.00 in0.0 mm 0.00 in/hr0.0 mm/hr 0.00 in0.0 mm
10:00 AM 41.7°F5.4°C 36.3°F2.4°C 81% Calm Calm -- 30.22 in1023.4 mb 0.00 in0.0 mm 0.00 in/hr0.0 mm/hr 0.00 in0.0 mm
09:50 AM 41.8°F5.4°C 36.3°F2.4°C 81% Calm Calm -- 30.22 in1023.4 mb 0.00 in0.0 mm 0.00 in/hr0.0 mm/hr 0.00 in0.0 mm
09:45 AM 41.8°F5.4°C 36.4°F2.4°C 81% Calm Calm -- 30.21 in1023.0 mb 0.00 in0.0 mm 0.00 in/hr0.0 mm/hr 0.00 in0.0 mm
09:40 AM 41.8°F5.4°C 36.4°F2.4°C 81% Calm Calm -- 30.21 in1023.0 mb 0.00 in0.0 mm 0.00 in/hr0.0 mm/hr 0.00 in0.0 mm
09:30 AM 41.9°F5.5°C 36.5°F2.5°C 81% Calm Calm -- 30.21 in1023.0 mb 0.00 in0.0 mm 0.00 in/hr0.0 mm/hr 0.00 in0.0 mm
09:20 AM 42.0°F5.6°C 36.6°F2.6°C 81% Calm Calm -- 30.21 in1023.0 mb 0.00 in0.0 mm 0.00 in/hr0.0 mm/hr 0.00 in0.0 mm
09:15 AM 42.0°F5.6°C 36.6°F2.6°C 81% Calm Calm -- 30.21 in1023.0 mb 0.00 in0.0 mm 0.00 in/hr0.0 mm/hr 0.00 in0.0 mm
09:10 AM 42.0°F5.6°C 36.6°F2.6°C 81% Calm Calm -- 30.21 in1023.0 mb 0.00 in0.0 mm 0.00 in/hr0.0 mm/hr 0.00 in0.0 mm
09:00 AM 42.0°F5.6°C 36.6°F2.6°C 81% Calm Calm -- 30.21 in1023.0 mb 0.00 in0.0 mm 0.00 in/hr0.0 mm/hr 0.00 in0.0 mm
08:50 AM 42.0°F5.6°C 36.6°F2.6°C 81% Calm Calm -- 30.21 in1023.0 mb 0.00 in0.0 mm 0.00 in/hr0.0 mm/hr 0.00 in0.0 mm
08:45 AM 42.0°F5.6°C 36.6°F2.6°C 81% Calm Calm -- 30.21 in1023.0 mb 0.00 in0.0 mm 0.00 in/hr0.0 mm/hr 0.00 in0.0 mm
08:40 AM 42.0°F5.6°C 36.6°F2.6°C 81% Calm Calm -- 30.21 in1023.0 mb 0.00 in0.0 mm 0.00 in/hr0.0 mm/hr 0.00 in0.0 mm
08:30 AM 41.9°F5.5°C 36.2°F2.3°C 80% Calm Calm 1.0 mph1.6 kmh 30.21 in1023.0 mb 0.00 in0.0 mm 0.00 in/hr0.0 mm/hr 0.00 in0.0 mm
08:20 AM 41.9°F5.5°C 36.2°F2.3°C 80% Calm Calm -- 30.21 in1023.0 mb 0.00 in0.0 mm 0.00 in/hr0.0 mm/hr 0.00 in0.0 mm
08:15 AM 42.0°F5.6°C 36.3°F2.4°C 80% Calm Calm -- 30.21 in1023.0 mb 0.00 in0.0 mm 0.00 in/hr0.0 mm/hr 0.00 in0.0 mm
08:10 AM 42.1°F5.6°C 36.4°F2.4°C 80% 2.9 mph NNW4.7 kmh NNW 4.0 mph6.4 kmh 30.21 in1023.0 mb 0.00 in0.0 mm 0.00 in/hr0.0 mm/hr 0.00 in0.0 mm
08:00 AM 42.2°F5.7°C 36.5°F2.5°C 80% Calm Calm -- 30.21 in1023.0 mb 0.00 in0.0 mm 0.00 in/hr0.0 mm/hr 0.00 in0.0 mm
07:50 AM 42.2°F5.7°C 36.1°F2.3°C 79% Calm Calm -- 30.21 in1023.0 mb 0.00 in0.0 mm 0.00 in/hr0.0 mm/hr 0.00 in0.0 mm
07:45 AM 42.2°F5.7°C 36.2°F2.3°C 79% Calm Calm -- 30.21 in1023.0 mb 0.00 in0.0 mm 0.00 in/hr0.0 mm/hr 0.00 in0.0 mm
07:40 AM 42.3°F5.7°C 36.2°F2.3°C 79% Calm Calm -- 30.21 in1023.0 mb 0.00 in0.0 mm 0.00 in/hr0.0 mm/hr 0.00 in0.0 mm
07:30 AM 42.3°F5.7°C 35.9°F2.2°C 78% Calm Calm -- 30.21 in1023.0 mb 0.00 in0.0 mm 0.00 in/hr0.0 mm/hr 0.00 in0.0 mm
07:20 AM 42.3°F5.7°C 35.9°F2.2°C 78% Calm Calm -- 30.21 in1023.0 mb 0.00 in0.0 mm 0.00 in/hr0.0 mm/hr 0.00 in0.0 mm
07:15 AM 42.4°F5.8°C 36.3°F2.4°C 79% Calm Calm -- 30.21 in1023.0 mb 0.00 in0.0 mm 0.00 in/hr0.0 mm/hr 0.00 in0.0 mm
07:10 AM 42.4°F5.8°C 36.3°F2.4°C 79% Calm Calm -- 30.21 in1023.0 mb 0.00 in0.0 mm 0.00 in/hr0.0 mm/hr 0.00 in0.0 mm
07:00 AM 42.5°F5.8°C 36.1°F2.3°C 78% Calm Calm -- 30.22 in1023.4 mb 0.00 in0.0 mm 0.00 in/hr0.0 mm/hr 0.00 in0.0 mm
06:50 AM 42.7°F5.9°C 36.3°F2.4°C 78% Calm Calm -- 30.22 in1023.4 mb 0.00 in0.0 mm 0.00 in/hr0.0 mm/hr 0.00 in0.0 mm
06:45 AM 42.7°F5.9°C 36.3°F2.4°C 78% Calm Calm -- 30.22 in1023.4 mb 0.00 in0.0 mm 0.00 in/hr0.0 mm/hr 0.00 in0.0 mm
06:40 AM 42.8°F6.0°C 36.1°F2.3°C 77% Calm Calm -- 30.22 in1023.4 mb 0.00 in0.0 mm 0.00 in/hr0.0 mm/hr 0.00 in0.0 mm
06:30 AM 43.0°F6.1°C 36.6°F2.6°C 78% Calm Calm -- 30.23 in1023.7 mb 0.00 in0.0 mm 0.00 in/hr0.0 mm/hr 0.00 in0.0 mm
06:20 AM 43.1°F6.2°C 36.4°F2.4°C 77% Calm Calm -- 30.22 in1023.4 mb 0.00 in0.0 mm 0.00 in/hr0.0 mm/hr 0.00 in0.0 mm
06:15 AM 43.2°F6.2°C 36.5°F2.5°C 77% Calm Calm -- 30.23 in1023.7 mb 0.00 in0.0 mm 0.00 in/hr0.0 mm/hr 0.00 in0.0 mm
06:10 AM 43.3°F6.3°C 36.6°F2.6°C 77% Calm Calm -- 30.23 in1023.7 mb 0.00 in0.0 mm 0.00 in/hr0.0 mm/hr 0.00 in0.0 mm
06:00 AM 43.4°F6.3°C 36.3°F2.4°C 76% Calm Calm -- 30.23 in1023.7 mb 0.00 in0.0 mm 0.00 in/hr0.0 mm/hr 0.00 in0.0 mm
05:50 AM 43.5°F6.4°C 36.4°F2.4°C 76% Calm Calm -- 30.23 in1023.7 mb 0.00 in0.0 mm 0.00 in/hr0.0 mm/hr 0.00 in0.0 mm
05:45 AM 43.6°F6.4°C 36.5°F2.5°C 76% Calm Calm -- 30.24 in1024.0 mb 0.00 in0.0 mm 0.00 in/hr0.0 mm/hr 0.00 in0.0 mm
05:40 AM 43.7°F6.5°C 36.6°F2.6°C 76% Calm Calm -- 30.24 in1024.0 mb 0.00 in0.0 mm 0.00 in/hr0.0 mm/hr 0.00 in0.0 mm
05:30 AM 43.9°F6.6°C 36.5°F2.5°C 75% Calm Calm -- 30.24 in1024.0 mb 0.00 in0.0 mm 0.00 in/hr0.0 mm/hr 0.00 in0.0 mm
05:20 AM 44.1°F6.7°C 36.7°F2.6°C 75% Calm Calm -- 30.25 in1024.4 mb 0.00 in0.0 mm 0.00 in/hr0.0 mm/hr 0.00 in0.0 mm
05:15 AM 44.2°F6.8°C 36.8°F2.7°C 75% Calm Calm -- 30.25 in1024.4 mb 0.00 in0.0 mm 0.00 in/hr0.0 mm/hr 0.00 in0.0 mm
05:10 AM 44.3°F6.8°C 36.5°F2.5°C 74% Calm Calm -- 30.25 in1024.4 mb 0.00 in0.0 mm 0.00 in/hr0.0 mm/hr 0.00 in0.0 mm
05:00 AM 44.4°F6.9°C 36.3°F2.4°C 73% Calm Calm -- 30.25 in1024.4 mb 0.00 in0.0 mm 0.00 in/hr0.0 mm/hr 0.00 in0.0 mm
04:50 AM 44.5°F6.9°C 36.0°F2.2°C 72% Calm Calm -- 30.25 in1024.4 mb 0.00 in0.0 mm 0.00 in/hr0.0 mm/hr 0.00 in0.0 mm
04:45 AM 44.5°F6.9°C 36.0°F2.2°C 72% Calm Calm -- 30.25 in1024.4 mb 0.00 in0.0 mm 0.00 in/hr0.0 mm/hr 0.00 in0.0 mm
04:40 AM 44.6°F7.0°C 36.1°F2.3°C 72% Calm Calm -- 30.25 in1024.4 mb 0.00 in0.0 mm 0.00 in/hr0.0 mm/hr 0.00 in0.0 mm
04:30 AM 44.7°F7.1°C 36.2°F2.3°C 72% Calm Calm -- 30.24 in1024.0 mb 0.00 in0.0 mm 0.00 in/hr0.0 mm/hr 0.00 in0.0 mm
04:20 AM 44.7°F7.1°C 35.9°F2.2°C 71% Calm Calm -- 30.23 in1023.7 mb 0.00 in0.0 mm 0.00 in/hr0.0 mm/hr 0.00 in0.0 mm
04:15 AM 44.8°F7.1°C 35.9°F2.2°C 71% Calm Calm -- 30.24 in1024.0 mb 0.00 in0.0 mm 0.00 in/hr0.0 mm/hr 0.00 in0.0 mm
04:10 AM 44.8°F7.1°C 35.9°F2.2°C 71% Calm Calm -- 30.24 in1024.0 mb 0.00 in0.0 mm 0.00 in/hr0.0 mm/hr 0.00 in0.0 mm
04:00 AM 45.0°F7.2°C 36.1°F2.3°C 71% 1.2 mph SSE1.9 kmh SSE 2.0 mph3.2 kmh 30.25 in1024.4 mb 0.00 in0.0 mm 0.00 in/hr0.0 mm/hr 0.00 in0.0 mm
03:50 AM 45.1°F7.3°C 36.3°F2.4°C 71% Calm Calm -- 30.25 in1024.4 mb 0.00 in0.0 mm 0.00 in/hr0.0 mm/hr 0.00 in0.0 mm
03:45 AM 45.2°F7.3°C 36.3°F2.4°C 71% Calm Calm -- 30.25 in1024.4 mb 0.00 in0.0 mm 0.00 in/hr0.0 mm/hr 0.00 in0.0 mm
03:40 AM 45.2°F7.3°C 36.4°F2.4°C 71% Calm Calm -- 30.25 in1024.4 mb 0.00 in0.0 mm 0.00 in/hr0.0 mm/hr 0.00 in0.0 mm
03:30 AM 45.4°F7.4°C 36.2°F2.3°C 70% Calm Calm -- 30.26 in1024.7 mb 0.00 in0.0 mm 0.00 in/hr0.0 mm/hr 0.00 in0.0 mm
03:20 AM 45.5°F7.5°C 36.2°F2.3°C 70% Calm Calm -- 30.25 in1024.4 mb 0.00 in0.0 mm 0.00 in/hr0.0 mm/hr 0.00 in0.0 mm
03:15 AM 45.5°F7.5°C 36.3°F2.4°C 70% Calm Calm -- 30.25 in1024.4 mb 0.00 in0.0 mm 0.00 in/hr0.0 mm/hr 0.00 in0.0 mm
03:10 AM 45.5°F7.5°C 35.9°F2.2°C 69% Calm Calm -- 30.26 in1024.7 mb 0.00 in0.0 mm 0.00 in/hr0.0 mm/hr 0.00 in0.0 mm
03:00 AM 45.6°F7.6°C 36.0°F2.2°C 69% Calm Calm -- 30.26 in1024.7 mb 0.00 in0.0 mm 0.00 in/hr0.0 mm/hr 0.00 in0.0 mm
02:50 AM 45.7°F7.6°C 36.1°F2.3°C 69% Calm Calm -- 30.27 in1025.1 mb 0.00 in0.0 mm 0.00 in/hr0.0 mm/hr 0.00 in0.0 mm
02:45 AM 45.9°F7.7°C 36.3°F2.4°C 69% Calm Calm -- 30.27 in1025.1 mb 0.00 in0.0 mm 0.00 in/hr0.0 mm/hr 0.00 in0.0 mm
02:40 AM 45.9°F7.7°C 36.0°F2.2°C 68% Calm Calm -- 30.27 in1025.1 mb 0.00 in0.0 mm 0.00 in/hr0.0 mm/hr 0.00 in0.0 mm
02:30 AM 46.0°F7.8°C 36.1°F2.3°C 68% Calm Calm -- 30.27 in1025.1 mb 0.00 in0.0 mm 0.00 in/hr0.0 mm/hr 0.00 in0.0 mm
02:20 AM 46.1°F7.8°C 35.7°F2.1°C 67% Calm Calm -- 30.27 in1025.1 mb 0.00 in0.0 mm 0.00 in/hr0.0 mm/hr 0.00 in0.0 mm
02:15 AM 46.0°F7.8°C 35.7°F2.1°C 67% Calm Calm -- 30.28 in1025.4 mb 0.00 in0.0 mm 0.00 in/hr0.0 mm/hr 0.00 in0.0 mm
02:10 AM 46.1°F7.8°C 35.7°F2.1°C 67% 0.4 mph SSE0.6 kmh SSE 2.0 mph3.2 kmh 30.28 in1025.4 mb 0.00 in0.0 mm 0.00 in/hr0.0 mm/hr 0.00 in0.0 mm
02:00 AM 46.2°F7.9°C 35.4°F1.9°C 66% Calm Calm -- 30.27 in1025.1 mb 0.00 in0.0 mm 0.00 in/hr0.0 mm/hr 0.00 in0.0 mm
01:50 AM 46.4°F8.0°C 35.6°F2.0°C 66% Calm Calm -- 30.28 in1025.4 mb 0.00 in0.0 mm 0.00 in/hr0.0 mm/hr 0.00 in0.0 mm
01:45 AM 46.5°F8.1°C 35.7°F2.1°C 66% Calm Calm -- 30.28 in1025.4 mb 0.00 in0.0 mm 0.00 in/hr0.0 mm/hr 0.00 in0.0 mm
01:40 AM 46.5°F8.1°C 35.7°F2.1°C 66% Calm Calm -- 30.28 in1025.4 mb 0.00 in0.0 mm 0.00 in/hr0.0 mm/hr 0.00 in0.0 mm
01:30 AM 46.6°F8.1°C 35.4°F1.9°C 65% Calm Calm -- 30.28 in1025.4 mb 0.00 in0.0 mm 0.00 in/hr0.0 mm/hr 0.00 in0.0 mm
01:20 AM 46.8°F8.2°C 35.6°F2.0°C 65% Calm Calm -- 30.29 in1025.7 mb 0.00 in0.0 mm 0.00 in/hr0.0 mm/hr 0.00 in0.0 mm
01:15 AM 46.8°F8.2°C 35.6°F2.0°C 65% Calm Calm -- 30.29 in1025.7 mb 0.00 in0.0 mm 0.00 in/hr0.0 mm/hr 0.00 in0.0 mm
01:10 AM 46.9°F8.3°C 35.8°F2.1°C 65% Calm Calm -- 30.29 in1025.7 mb 0.00 in0.0 mm 0.00 in/hr0.0 mm/hr 0.00 in0.0 mm
01:00 AM 47.1°F8.4°C 35.5°F1.9°C 64% Calm Calm -- 30.29 in1025.7 mb 0.00 in0.0 mm 0.00 in/hr0.0 mm/hr 0.00 in0.0 mm
12:50 AM 47.3°F8.5°C 35.8°F2.1°C 64% Calm Calm -- 30.28 in1025.4 mb 0.00 in0.0 mm 0.00 in/hr0.0 mm/hr 0.00 in0.0 mm
12:45 AM 47.5°F8.6°C 35.5°F1.9°C 63% Calm Calm -- 30.28 in1025.4 mb 0.00 in0.0 mm 0.00 in/hr0.0 mm/hr 0.00 in0.0 mm
12:40 AM 47.5°F8.6°C 35.5°F1.9°C 63% Calm Calm -- 30.28 in1025.4 mb 0.00 in0.0 mm 0.00 in/hr0.0 mm/hr 0.00 in0.0 mm
12:30 AM 47.7°F8.7°C 35.3°F1.8°C 62% Calm Calm -- 30.28 in1025.4 mb 0.00 in0.0 mm 0.00 in/hr0.0 mm/hr 0.00 in0.0 mm
12:20 AM 47.8°F8.8°C 35.4°F1.9°C 62% Calm Calm -- 30.27 in1025.1 mb 0.00 in0.0 mm 0.00 in/hr0.0 mm/hr 0.00 in0.0 mm
12:15 AM 47.8°F8.8°C 35.0°F1.7°C 61% Calm Calm -- 30.27 in1025.1 mb 0.00 in0.0 mm 0.00 in/hr0.0 mm/hr 0.00 in0.0 mm
12:10 AM 47.8°F8.8°C 35.0°F1.7°C 61% Calm Calm -- 30.28 in1025.4 mb 0.00 in0.0 mm 0.00 in/hr0.0 mm/hr 0.00 in0.0 mm
12:00 AM 48.0°F8.9°C 35.2°F1.8°C 61% 0.5 mph SE0.8 kmh SE 2.0 mph3.2 kmh 30.27 in1025.1 mb 0.00 in0.0 mm 0.00 in/hr0.0 mm/hr 0.00 in0.0 mm